This is the latest recevied weather packets stored in our database for station/object SA3ARQ-13. If no packets are shown the sender has not sent any weather packets the latest 10 day(s).
| Time | Temp. | Humidity | Pressure | Rain* | Wind** | Luminosity | Snow |
|---|---|---|---|---|---|---|---|
| 1777690328 | 16.11° C | 41% | 1010.9 hPa | - | - | - | - |
| 1777689428 | 16.67° C | 41% | 1011.1 hPa | - | - | - | - |
| 1777674127 | 20° C | 39% | 1012.7 hPa | - | - | - | - |
| 1777673227 | 20.56° C | 39% | 1012.7 hPa | - | - | - | - |
| 1777672327 | 20.56° C | 39% | 1012.8 hPa | - | - | - | - |
| 1777671426 | 21.11° C | 39% | 1012.9 hPa | - | - | - | - |
| 1777670526 | 21.11° C | 39% | 1013.1 hPa | - | - | - | - |
| 1777669626 | 21.67° C | 38% | 1013 hPa | - | - | - | - |
| 1777668726 | 22.22° C | 38% | 1013.1 hPa | - | - | - | - |
| 1777667826 | 22.22° C | 38% | 1013 hPa | - | - | - | - |
| 1777666926 | 22.78° C | 38% | 1013.1 hPa | - | - | - | - |
| 1777666026 | 22.78° C | 39% | 1013.1 hPa | - | - | - | - |
| 1777665126 | 23.33° C | 38% | 1013.1 hPa | - | - | - | - |
| 1777664227 | 23.89° C | 38% | 1013.1 hPa | - | - | - | - |
| 1777663326 | 23.89° C | 38% | 1013 hPa | - | - | - | - |
| 1777662426 | 24.44° C | 38% | 1013 hPa | - | - | - | - |
| 1777660626 | 25° C | 38% | 1012.8 hPa | - | - | - | - |
| 1777659726 | 25.56° C | 37% | 1012.7 hPa | - | - | - | - |
| 1777658826 | 25.56° C | 38% | 1012.7 hPa | - | - | - | - |
| 1777657026 | 26.11° C | 37% | 1012.7 hPa | - | - | - | - |
| 1777656126 | 26.11° C | 37% | 1012.7 hPa | - | - | - | - |
| 1777654326 | 26.67° C | 35% | 1012.9 hPa | - | - | - | - |
| 1777653426 | 26.67° C | 36% | 1013.1 hPa | - | - | - | - |
| 1777652526 | 26.67° C | 35% | 1013.2 hPa | - | - | - | - |
| 1777651626 | 26.67° C | 35% | 1013.2 hPa | - | - | - | - |
* Rain since midnight (hover to see other rain measurements)
** Current wind speed in m/s (hover to see current wind gust speed)